sensor_id;sensor_type;location;lat;lon;timestamp;temperature;humidity
53653;DHT22;39553;52.954;5.932;2023-07-13T00:00:29;17.50;7.00
53653;DHT22;39553;52.954;5.932;2023-07-13T00:02:56;17.50;7.60
53653;DHT22;39553;52.954;5.932;2023-07-13T00:05:22;17.40;6.90
53653;DHT22;39553;52.954;5.932;2023-07-13T00:07:49;17.40;7.00
53653;DHT22;39553;52.954;5.932;2023-07-13T00:10:15;17.40;7.10
53653;DHT22;39553;52.954;5.932;2023-07-13T00:12:41;17.40;7.10
53653;DHT22;39553;52.954;5.932;2023-07-13T00:15:22;17.40;7.40
53653;DHT22;39553;52.954;5.932;2023-07-13T00:17:53;17.30;7.70
53653;DHT22;39553;52.954;5.932;2023-07-13T00:20:21;17.30;7.90
53653;DHT22;39553;52.954;5.932;2023-07-13T00:22:48;17.30;8.30
53653;DHT22;39553;52.954;5.932;2023-07-13T00:25:15;17.30;8.50
53653;DHT22;39553;52.954;5.932;2023-07-13T00:27:43;17.30;8.30
53653;DHT22;39553;52.954;5.932;2023-07-13T00:30:10;17.30;7.50
53653;DHT22;39553;52.954;5.932;2023-07-13T00:32:36;17.30;6.20
53653;DHT22;39553;52.954;5.932;2023-07-13T00:35:03;17.30;4.10
53653;DHT22;39553;52.954;5.932;2023-07-13T00:37:30;17.40;2.60
53653;DHT22;39553;52.954;5.932;2023-07-13T00:39:56;17.40;1.00
53653;DHT22;39553;52.954;5.932;2023-07-13T00:42:24;17.40;1.00
53653;DHT22;39553;52.954;5.932;2023-07-13T00:47:41;17.40;1.00
53653;DHT22;39553;52.954;5.932;2023-07-13T00:50:10;17.40;1.00
53653;DHT22;39553;52.954;5.932;2023-07-13T00:52:40;17.30;1.00
53653;DHT22;39553;52.954;5.932;2023-07-13T00:55:08;17.30;1.00
53653;DHT22;39553;52.954;5.932;2023-07-13T00:57:35;17.30;1.00
53653;DHT22;39553;52.954;5.932;2023-07-13T01:00:05;17.30;1.00
53653;DHT22;39553;52.954;5.932;2023-07-13T01:02:33;17.30;1.00
53653;DHT22;39553;52.954;5.932;2023-07-13T01:04:59;17.30;1.00
53653;DHT22;39553;52.954;5.932;2023-07-13T01:07:25;17.20;1.00
53653;DHT22;39553;52.954;5.932;2023-07-13T01:09:51;17.20;1.00
53653;DHT22;39553;52.954;5.932;2023-07-13T01:12:17;17.20;1.00
53653;DHT22;39553;52.954;5.932;2023-07-13T01:14:43;17.20;1.00
53653;DHT22;39553;52.954;5.932;2023-07-13T01:17:10;17.10;1.00
53653;DHT22;39553;52.954;5.932;2023-07-13T01:19:39;17.10;1.00
53653;DHT22;39553;52.954;5.932;2023-07-13T01:22:12;17.10;1.00
53653;DHT22;39553;52.954;5.932;2023-07-13T01:24:39;17.00;1.00
53653;DHT22;39553;52.954;5.932;2023-07-13T01:27:07;17.00;1.00
53653;DHT22;39553;52.954;5.932;2023-07-13T01:29:34;17.00;1.00
53653;DHT22;39553;52.954;5.932;2023-07-13T01:32:07;17.00;1.50
53653;DHT22;39553;52.954;5.932;2023-07-13T01:34:33;16.90;2.30
53653;DHT22;39553;52.954;5.932;2023-07-13T01:36:59;16.90;3.20
53653;DHT22;39553;52.954;5.932;2023-07-13T01:39:25;16.90;4.30
53653;DHT22;39553;52.954;5.932;2023-07-13T01:41:51;16.90;5.50
53653;DHT22;39553;52.954;5.932;2023-07-13T01:44:16;16.80;6.80
53653;DHT22;39553;52.954;5.932;2023-07-13T01:46:42;16.80;7.90
53653;DHT22;39553;52.954;5.932;2023-07-13T01:49:08;16.80;9.30
53653;DHT22;39553;52.954;5.932;2023-07-13T01:51:34;16.80;10.70
53653;DHT22;39553;52.954;5.932;2023-07-13T01:53:59;16.80;11.90
53653;DHT22;39553;52.954;5.932;2023-07-13T01:56:25;16.80;13.30
53653;DHT22;39553;52.954;5.932;2023-07-13T01:58:52;16.80;14.70
53653;DHT22;39553;52.954;5.932;2023-07-13T02:01:18;16.80;15.80
53653;DHT22;39553;52.954;5.932;2023-07-13T02:03:43;16.80;17.00
53653;DHT22;39553;52.954;5.932;2023-07-13T02:06:09;16.80;18.50
53653;DHT22;39553;52.954;5.932;2023-07-13T02:08:35;16.90;19.90
53653;DHT22;39553;52.954;5.932;2023-07-13T02:11:03;16.80;20.90
53653;DHT22;39553;52.954;5.932;2023-07-13T02:13:29;16.80;21.80
53653;DHT22;39553;52.954;5.932;2023-07-13T02:15:55;16.80;22.80
53653;DHT22;39553;52.954;5.932;2023-07-13T02:18:20;16.80;8.70
53653;DHT22;39553;52.954;5.932;2023-07-13T02:20:46;16.80;1.00
53653;DHT22;39553;52.954;5.932;2023-07-13T02:23:12;16.80;1.00
53653;DHT22;39553;52.954;5.932;2023-07-13T02:25:38;16.80;1.00
53653;DHT22;39553;52.954;5.932;2023-07-13T02:28:04;16.80;1.00
53653;DHT22;39553;52.954;5.932;2023-07-13T02:30:30;16.80;1.00
53653;DHT22;39553;52.954;5.932;2023-07-13T02:32:59;16.80;1.00
53653;DHT22;39553;52.954;5.932;2023-07-13T02:35:24;16.80;2.10
53653;DHT22;39553;52.954;5.932;2023-07-13T02:37:50;16.80;3.50
53653;DHT22;39553;52.954;5.932;2023-07-13T02:40:16;16.80;3.90
53653;DHT22;39553;52.954;5.932;2023-07-13T02:42:42;16.80;4.60
53653;DHT22;39553;52.954;5.932;2023-07-13T02:45:08;16.80;4.80
53653;DHT22;39553;52.954;5.932;2023-07-13T02:47:35;16.80;5.40
53653;DHT22;39553;52.954;5.932;2023-07-13T02:50:02;16.80;6.00
53653;DHT22;39553;52.954;5.932;2023-07-13T02:52:28;16.90;6.60
53653;DHT22;39553;52.954;5.932;2023-07-13T02:54:53;16.90;7.00
53653;DHT22;39553;52.954;5.932;2023-07-13T02:57:19;16.90;7.20
53653;DHT22;39553;52.954;5.932;2023-07-13T02:59:46;16.90;7.40
53653;DHT22;39553;52.954;5.932;2023-07-13T03:02:11;16.90;7.60
53653;DHT22;39553;52.954;5.932;2023-07-13T03:04:37;16.90;7.80
53653;DHT22;39553;52.954;5.932;2023-07-13T03:07:03;16.90;7.60
53653;DHT22;39553;52.954;5.932;2023-07-13T03:09:30;16.90;7.70
53653;DHT22;39553;52.954;5.932;2023-07-13T03:11:56;16.90;7.70
53653;DHT22;39553;52.954;5.932;2023-07-13T03:14:23;16.90;7.80
53653;DHT22;39553;52.954;5.932;2023-07-13T03:16:49;16.90;7.50
53653;DHT22;39553;52.954;5.932;2023-07-13T03:19:15;16.80;7.10
53653;DHT22;39553;52.954;5.932;2023-07-13T03:21:40;16.80;7.20
53653;DHT22;39553;52.954;5.932;2023-07-13T03:24:07;16.80;7.20
53653;DHT22;39553;52.954;5.932;2023-07-13T03:26:32;16.70;7.20
53653;DHT22;39553;52.954;5.932;2023-07-13T03:28:58;16.70;7.40
53653;DHT22;39553;52.954;5.932;2023-07-13T03:31:30;16.60;7.80
53653;DHT22;39553;52.954;5.932;2023-07-13T03:33:56;16.60;7.90
53653;DHT22;39553;52.954;5.932;2023-07-13T03:36:25;16.50;8.10
53653;DHT22;39553;52.954;5.932;2023-07-13T03:38:54;16.50;8.90
53653;DHT22;39553;52.954;5.932;2023-07-13T03:41:21;16.50;8.80
53653;DHT22;39553;52.954;5.932;2023-07-13T03:43:48;16.50;9.00
53653;DHT22;39553;52.954;5.932;2023-07-13T03:46:15;16.50;9.40
53653;DHT22;39553;52.954;5.932;2023-07-13T03:48:43;16.50;9.70
53653;DHT22;39553;52.954;5.932;2023-07-13T03:51:11;16.40;9.80
53653;DHT22;39553;52.954;5.932;2023-07-13T03:53:40;16.40;9.90
53653;DHT22;39553;52.954;5.932;2023-07-13T03:56:06;16.50;10.20
53653;DHT22;39553;52.954;5.932;2023-07-13T03:58:35;16.40;10.50
53653;DHT22;39553;52.954;5.932;2023-07-13T04:01:02;16.40;10.80
53653;DHT22;39553;52.954;5.932;2023-07-13T04:03:29;16.40;11.00
53653;DHT22;39553;52.954;5.932;2023-07-13T04:05:56;16.40;11.30
53653;DHT22;39553;52.954;5.932;2023-07-13T04:08:26;16.40;11.70
53653;DHT22;39553;52.954;5.932;2023-07-13T04:10:52;16.40;12.10
53653;DHT22;39553;52.954;5.932;2023-07-13T04:13:18;16.40;12.60
53653;DHT22;39553;52.954;5.932;2023-07-13T04:15:43;16.40;13.30
53653;DHT22;39553;52.954;5.932;2023-07-13T04:18:09;16.40;13.90
53653;DHT22;39553;52.954;5.932;2023-07-13T04:20:35;16.40;14.30
53653;DHT22;39553;52.954;5.932;2023-07-13T04:23:01;16.40;14.70
53653;DHT22;39553;52.954;5.932;2023-07-13T04:25:27;16.50;15.30
53653;DHT22;39553;52.954;5.932;2023-07-13T04:27:53;16.50;15.70
53653;DHT22;39553;52.954;5.932;2023-07-13T04:30:20;16.50;16.10
53653;DHT22;39553;52.954;5.932;2023-07-13T04:32:46;16.50;17.40
53653;DHT22;39553;52.954;5.932;2023-07-13T04:35:12;16.60;18.20
53653;DHT22;39553;52.954;5.932;2023-07-13T04:37:40;16.60;19.20
53653;DHT22;39553;52.954;5.932;2023-07-13T04:40:06;16.70;19.70
53653;DHT22;39553;52.954;5.932;2023-07-13T04:42:35;16.80;20.30
53653;DHT22;39553;52.954;5.932;2023-07-13T04:45:01;16.80;20.50
53653;DHT22;39553;52.954;5.932;2023-07-13T04:47:30;16.90;19.90
53653;DHT22;39553;52.954;5.932;2023-07-13T04:49:56;16.90;19.20
53653;DHT22;39553;52.954;5.932;2023-07-13T04:52:23;16.90;18.20
53653;DHT22;39553;52.954;5.932;2023-07-13T04:54:49;17.00;17.10
53653;DHT22;39553;52.954;5.932;2023-07-13T04:57:15;17.10;16.50
53653;DHT22;39553;52.954;5.932;2023-07-13T04:59:40;17.10;16.20
53653;DHT22;39553;52.954;5.932;2023-07-13T05:02:06;17.10;16.60
53653;DHT22;39553;52.954;5.932;2023-07-13T05:04:32;17.20;15.80
53653;DHT22;39553;52.954;5.932;2023-07-13T05:06:59;17.20;14.20
53653;DHT22;39553;52.954;5.932;2023-07-13T05:09:25;17.30;13.00
53653;DHT22;39553;52.954;5.932;2023-07-13T05:11:50;17.30;12.00
53653;DHT22;39553;52.954;5.932;2023-07-13T05:14:16;17.30;11.90
53653;DHT22;39553;52.954;5.932;2023-07-13T05:16:42;17.30;11.40
53653;DHT22;39553;52.954;5.932;2023-07-13T05:19:09;17.40;11.10
53653;DHT22;39553;52.954;5.932;2023-07-13T05:21:35;17.40;11.50
53653;DHT22;39553;52.954;5.932;2023-07-13T05:24:01;17.40;12.60
53653;DHT22;39553;52.954;5.932;2023-07-13T05:26:26;17.40;13.30
53653;DHT22;39553;52.954;5.932;2023-07-13T05:28:52;17.50;13.50
53653;DHT22;39553;52.954;5.932;2023-07-13T05:31:18;17.60;13.50
53653;DHT22;39553;52.954;5.932;2023-07-13T05:33:44;17.60;13.30
53653;DHT22;39553;52.954;5.932;2023-07-13T05:36:10;17.70;13.50
53653;DHT22;39553;52.954;5.932;2023-07-13T05:38:35;17.80;12.30
53653;DHT22;39553;52.954;5.932;2023-07-13T05:41:01;17.90;10.70
53653;DHT22;39553;52.954;5.932;2023-07-13T05:43:27;17.90;9.70
53653;DHT22;39553;52.954;5.932;2023-07-13T05:45:54;18.00;9.40
53653;DHT22;39553;52.954;5.932;2023-07-13T05:48:20;18.00;8.00
53653;DHT22;39553;52.954;5.932;2023-07-13T05:50:46;18.10;7.50
53653;DHT22;39553;52.954;5.932;2023-07-13T05:53:12;18.10;7.10
53653;DHT22;39553;52.954;5.932;2023-07-13T05:55:42;18.10;4.50
53653;DHT22;39553;52.954;5.932;2023-07-13T05:58:09;18.20;3.80
53653;DHT22;39553;52.954;5.932;2023-07-13T06:00:35;18.20;3.40
53653;DHT22;39553;52.954;5.932;2023-07-13T06:03:00;18.30;2.10
53653;DHT22;39553;52.954;5.932;2023-07-13T06:05:26;18.40;1.50
53653;DHT22;39553;52.954;5.932;2023-07-13T06:07:54;18.50;1.00
53653;DHT22;39553;52.954;5.932;2023-07-13T06:10:20;18.60;1.00
53653;DHT22;39553;52.954;5.932;2023-07-13T06:12:46;18.70;1.00
53653;DHT22;39553;52.954;5.932;2023-07-13T06:15:12;18.70;1.00
53653;DHT22;39553;52.954;5.932;2023-07-13T06:17:37;18.70;1.00
53653;DHT22;39553;52.954;5.932;2023-07-13T06:20:04;18.70;1.00
53653;DHT22;39553;52.954;5.932;2023-07-13T06:22:29;18.70;1.00
53653;DHT22;39553;52.954;5.932;2023-07-13T06:24:55;18.70;1.00
53653;DHT22;39553;52.954;5.932;2023-07-13T06:27:21;18.80;1.00
53653;DHT22;39553;52.954;5.932;2023-07-13T06:29:47;18.80;1.00
53653;DHT22;39553;52.954;5.932;2023-07-13T06:32:12;18.90;1.00
53653;DHT22;39553;52.954;5.932;2023-07-13T06:34:38;18.90;1.00
53653;DHT22;39553;52.954;5.932;2023-07-13T06:37:04;18.90;1.00
53653;DHT22;39553;52.954;5.932;2023-07-13T06:39:30;19.00;1.00
53653;DHT22;39553;52.954;5.932;2023-07-13T06:41:55;19.10;1.00
53653;DHT22;39553;52.954;5.932;2023-07-13T06:44:21;19.30;1.00
53653;DHT22;39553;52.954;5.932;2023-07-13T06:46:47;19.30;1.00
53653;DHT22;39553;52.954;5.932;2023-07-13T06:49:12;19.30;1.00
53653;DHT22;39553;52.954;5.932;2023-07-13T06:51:38;19.30;1.00
53653;DHT22;39553;52.954;5.932;2023-07-13T06:54:04;19.20;1.00
53653;DHT22;39553;52.954;5.932;2023-07-13T06:56:30;19.30;1.00
53653;DHT22;39553;52.954;5.932;2023-07-13T06:58:56;19.30;1.00
53653;DHT22;39553;52.954;5.932;2023-07-13T07:01:21;19.30;1.00
53653;DHT22;39553;52.954;5.932;2023-07-13T07:03:47;19.30;1.00
53653;DHT22;39553;52.954;5.932;2023-07-13T07:06:17;19.30;1.00
53653;DHT22;39553;52.954;5.932;2023-07-13T07:08:43;19.40;1.00
53653;DHT22;39553;52.954;5.932;2023-07-13T07:11:18;19.40;1.00
53653;DHT22;39553;52.954;5.932;2023-07-13T07:13:44;19.50;1.00
53653;DHT22;39553;52.954;5.932;2023-07-13T07:16:10;19.60;1.00
53653;DHT22;39553;52.954;5.932;2023-07-13T07:18:36;19.70;1.00
53653;DHT22;39553;52.954;5.932;2023-07-13T07:21:04;19.70;1.00
53653;DHT22;39553;52.954;5.932;2023-07-13T07:23:29;19.70;1.00
53653;DHT22;39553;52.954;5.932;2023-07-13T07:25:55;19.60;1.00
53653;DHT22;39553;52.954;5.932;2023-07-13T07:28:21;19.60;1.00
53653;DHT22;39553;52.954;5.932;2023-07-13T07:30:48;19.50;1.00
53653;DHT22;39553;52.954;5.932;2023-07-13T07:33:14;19.40;1.00
53653;DHT22;39553;52.954;5.932;2023-07-13T07:35:40;19.40;1.00
53653;DHT22;39553;52.954;5.932;2023-07-13T07:38:06;19.30;1.00
53653;DHT22;39553;52.954;5.932;2023-07-13T07:40:37;19.20;1.00
53653;DHT22;39553;52.954;5.932;2023-07-13T07:43:03;19.20;1.00
53653;DHT22;39553;52.954;5.932;2023-07-13T07:45:28;19.20;1.00
53653;DHT22;39553;52.954;5.932;2023-07-13T07:47:54;19.20;1.00
53653;DHT22;39553;52.954;5.932;2023-07-13T07:50:25;19.30;1.00
53653;DHT22;39553;52.954;5.932;2023-07-13T07:52:51;19.30;1.00
53653;DHT22;39553;52.954;5.932;2023-07-13T07:55:17;19.30;1.00
53653;DHT22;39553;52.954;5.932;2023-07-13T07:57:43;19.30;1.00
53653;DHT22;39553;52.954;5.932;2023-07-13T08:00:09;19.40;1.00
53653;DHT22;39553;52.954;5.932;2023-07-13T08:02:35;19.60;1.00
53653;DHT22;39553;52.954;5.932;2023-07-13T08:05:01;19.70;1.00
53653;DHT22;39553;52.954;5.932;2023-07-13T08:07:27;19.70;1.00
53653;DHT22;39553;52.954;5.932;2023-07-13T08:09:53;19.60;1.00
53653;DHT22;39553;52.954;5.932;2023-07-13T08:12:19;19.50;1.00
53653;DHT22;39553;52.954;5.932;2023-07-13T08:14:45;19.50;1.00
53653;DHT22;39553;52.954;5.932;2023-07-13T08:17:14;19.50;1.00
53653;DHT22;39553;52.954;5.932;2023-07-13T08:19:40;19.60;1.00
53653;DHT22;39553;52.954;5.932;2023-07-13T08:22:06;19.60;1.00
53653;DHT22;39553;52.954;5.932;2023-07-13T08:24:32;19.60;1.00
53653;DHT22;39553;52.954;5.932;2023-07-13T08:26:57;19.70;1.00
53653;DHT22;39553;52.954;5.932;2023-07-13T08:29:23;19.70;1.00
53653;DHT22;39553;52.954;5.932;2023-07-13T08:31:49;19.70;1.00
53653;DHT22;39553;52.954;5.932;2023-07-13T08:34:15;19.80;1.00
53653;DHT22;39553;52.954;5.932;2023-07-13T08:36:41;20.00;1.00
53653;DHT22;39553;52.954;5.932;2023-07-13T08:39:07;20.30;1.00
53653;DHT22;39553;52.954;5.932;2023-07-13T08:41:33;20.50;1.00
53653;DHT22;39553;52.954;5.932;2023-07-13T08:44:00;20.60;1.00
53653;DHT22;39553;52.954;5.932;2023-07-13T08:49:06;20.70;1.00
53653;DHT22;39553;52.954;5.932;2023-07-13T08:51:42;20.80;1.00
53653;DHT22;39553;52.954;5.932;2023-07-13T08:54:20;21.00;1.00
53653;DHT22;39553;52.954;5.932;2023-07-13T08:56:50;21.10;1.00
53653;DHT22;39553;52.954;5.932;2023-07-13T08:59:21;21.20;1.00
53653;DHT22;39553;52.954;5.932;2023-07-13T09:10:04;21.20;1.00
53653;DHT22;39553;52.954;5.932;2023-07-13T09:12:46;21.20;1.00
53653;DHT22;39553;52.954;5.932;2023-07-13T09:15:31;21.30;1.00
53653;DHT22;39553;52.954;5.932;2023-07-13T09:18:32;21.40;1.00
53653;DHT22;39553;52.954;5.932;2023-07-13T09:23:29;21.40;1.00
53653;DHT22;39553;52.954;5.932;2023-07-13T09:26:09;21.10;1.00
53653;DHT22;39553;52.954;5.932;2023-07-13T09:28:45;20.90;1.00
53653;DHT22;39553;52.954;5.932;2023-07-13T09:33:40;21.00;1.00
53653;DHT22;39553;52.954;5.932;2023-07-13T09:36:23;21.10;1.00
53653;DHT22;39553;52.954;5.932;2023-07-13T09:38:59;21.10;1.00
53653;DHT22;39553;52.954;5.932;2023-07-13T09:41:51;21.00;1.00
53653;DHT22;39553;52.954;5.932;2023-07-13T09:44:34;20.80;1.00
53653;DHT22;39553;52.954;5.932;2023-07-13T09:47:01;20.60;1.00
53653;DHT22;39553;52.954;5.932;2023-07-13T09:49:31;20.40;1.00
53653;DHT22;39553;52.954;5.932;2023-07-13T09:52:07;20.30;1.00
53653;DHT22;39553;52.954;5.932;2023-07-13T09:54:36;20.10;1.00
53653;DHT22;39553;52.954;5.932;2023-07-13T09:57:11;20.30;1.00
53653;DHT22;39553;52.954;5.932;2023-07-13T09:59:41;20.70;1.00
53653;DHT22;39553;52.954;5.932;2023-07-13T10:02:32;21.20;1.00
53653;DHT22;39553;52.954;5.932;2023-07-13T10:05:04;21.30;1.00
53653;DHT22;39553;52.954;5.932;2023-07-13T10:07:31;21.50;1.00
53653;DHT22;39553;52.954;5.932;2023-07-13T10:09:59;21.80;1.00
53653;DHT22;39553;52.954;5.932;2023-07-13T10:12:30;22.10;1.00
53653;DHT22;39553;52.954;5.932;2023-07-13T10:15:01;22.40;1.00
53653;DHT22;39553;52.954;5.932;2023-07-13T10:17:32;22.30;1.00
53653;DHT22;39553;52.954;5.932;2023-07-13T10:20:03;22.30;1.00
53653;DHT22;39553;52.954;5.932;2023-07-13T10:23:02;22.30;1.00
53653;DHT22;39553;52.954;5.932;2023-07-13T10:25:34;22.50;1.00
53653;DHT22;39553;52.954;5.932;2023-07-13T10:28:20;22.70;1.00
53653;DHT22;39553;52.954;5.932;2023-07-13T10:30:49;23.00;1.00
53653;DHT22;39553;52.954;5.932;2023-07-13T10:33:17;23.20;1.00
53653;DHT22;39553;52.954;5.932;2023-07-13T10:35:44;23.50;1.00
53653;DHT22;39553;52.954;5.932;2023-07-13T10:38:20;23.90;1.00
53653;DHT22;39553;52.954;5.932;2023-07-13T10:40:58;24.30;1.00
53653;DHT22;39553;52.954;5.932;2023-07-13T10:43:35;24.50;1.00
53653;DHT22;39553;52.954;5.932;2023-07-13T10:46:04;24.70;1.00
53653;DHT22;39553;52.954;5.932;2023-07-13T10:48:32;24.80;1.00
53653;DHT22;39553;52.954;5.932;2023-07-13T10:51:00;25.00;1.00
53653;DHT22;39553;52.954;5.932;2023-07-13T10:53:32;25.10;1.00
53653;DHT22;39553;52.954;5.932;2023-07-13T10:56:04;25.20;1.00
53653;DHT22;39553;52.954;5.932;2023-07-13T10:58:41;25.10;1.00
53653;DHT22;39553;52.954;5.932;2023-07-13T11:01:17;25.30;1.00
53653;DHT22;39553;52.954;5.932;2023-07-13T11:03:49;25.40;1.00
53653;DHT22;39553;52.954;5.932;2023-07-13T11:08:55;25.60;1.00
53653;DHT22;39553;52.954;5.932;2023-07-13T11:18:54;25.70;1.00
53653;DHT22;39553;52.954;5.932;2023-07-13T11:21:34;25.80;1.00
53653;DHT22;39553;52.954;5.932;2023-07-13T11:26:41;26.10;1.00
53653;DHT22;39553;52.954;5.932;2023-07-13T11:29:39;26.20;1.00
53653;DHT22;39553;52.954;5.932;2023-07-13T11:32:24;26.30;1.00
53653;DHT22;39553;52.954;5.932;2023-07-13T11:34:53;26.20;1.00
53653;DHT22;39553;52.954;5.932;2023-07-13T11:37:21;25.90;1.00
53653;DHT22;39553;52.954;5.932;2023-07-13T11:39:50;25.70;1.00
53653;DHT22;39553;52.954;5.932;2023-07-13T11:42:18;25.80;1.00
53653;DHT22;39553;52.954;5.932;2023-07-13T11:44:47;25.80;1.00
53653;DHT22;39553;52.954;5.932;2023-07-13T11:47:18;25.90;1.00
53653;DHT22;39553;52.954;5.932;2023-07-13T11:49:49;26.10;1.00
53653;DHT22;39553;52.954;5.932;2023-07-13T11:52:34;26.30;1.00
53653;DHT22;39553;52.954;5.932;2023-07-13T11:55:02;26.30;1.00
53653;DHT22;39553;52.954;5.932;2023-07-13T11:57:32;26.10;1.00
53653;DHT22;39553;52.954;5.932;2023-07-13T12:00:09;25.90;1.00
53653;DHT22;39553;52.954;5.932;2023-07-13T12:02:39;26.00;1.00
53653;DHT22;39553;52.954;5.932;2023-07-13T12:05:08;25.60;1.00
53653;DHT22;39553;52.954;5.932;2023-07-13T12:07:36;25.30;1.00
53653;DHT22;39553;52.954;5.932;2023-07-13T12:12:51;25.90;1.00
53653;DHT22;39553;52.954;5.932;2023-07-13T12:15:19;26.40;1.00
53653;DHT22;39553;52.954;5.932;2023-07-13T12:17:45;26.70;1.00
53653;DHT22;39553;52.954;5.932;2023-07-13T12:20:21;26.90;1.00
53653;DHT22;39553;52.954;5.932;2023-07-13T12:22:48;26.80;1.00
53653;DHT22;39553;52.954;5.932;2023-07-13T12:25:15;26.40;1.00
53653;DHT22;39553;52.954;5.932;2023-07-13T12:27:41;26.50;1.00
53653;DHT22;39553;52.954;5.932;2023-07-13T12:30:28;26.40;1.00
53653;DHT22;39553;52.954;5.932;2023-07-13T12:33:02;25.70;1.00
53653;DHT22;39553;52.954;5.932;2023-07-13T12:35:44;25.00;1.00
53653;DHT22;39553;52.954;5.932;2023-07-13T12:38:12;24.20;1.00
53653;DHT22;39553;52.954;5.932;2023-07-13T12:40:38;23.70;1.00
53653;DHT22;39553;52.954;5.932;2023-07-13T12:43:11;23.40;1.00
53653;DHT22;39553;52.954;5.932;2023-07-13T12:45:38;23.10;1.00
53653;DHT22;39553;52.954;5.932;2023-07-13T12:48:05;22.90;1.00
53653;DHT22;39553;52.954;5.932;2023-07-13T12:50:38;22.80;1.00
53653;DHT22;39553;52.954;5.932;2023-07-13T12:53:13;22.80;1.00
53653;DHT22;39553;52.954;5.932;2023-07-13T12:55:51;22.90;1.00
53653;DHT22;39553;52.954;5.932;2023-07-13T13:00:51;23.20;1.00
53653;DHT22;39553;52.954;5.932;2023-07-13T13:03:30;23.20;1.00
53653;DHT22;39553;52.954;5.932;2023-07-13T13:08:52;22.80;1.00
53653;DHT22;39553;52.954;5.932;2023-07-13T13:11:19;22.60;1.00
53653;DHT22;39553;52.954;5.932;2023-07-13T13:13:46;22.60;1.00
53653;DHT22;39553;52.954;5.932;2023-07-13T13:16:23;22.60;1.00
53653;DHT22;39553;52.954;5.932;2023-07-13T13:18:51;22.40;1.00
53653;DHT22;39553;52.954;5.932;2023-07-13T13:21:18;22.30;1.00
53653;DHT22;39553;52.954;5.932;2023-07-13T13:23:45;22.30;1.00
53653;DHT22;39553;52.954;5.932;2023-07-13T13:26:14;22.30;1.00
53653;DHT22;39553;52.954;5.932;2023-07-13T13:28:43;22.40;1.00
53653;DHT22;39553;52.954;5.932;2023-07-13T13:31:13;22.20;1.00
53653;DHT22;39553;52.954;5.932;2023-07-13T13:33:40;22.10;1.00
53653;DHT22;39553;52.954;5.932;2023-07-13T13:36:14;22.20;1.00
53653;DHT22;39553;52.954;5.932;2023-07-13T13:38:41;22.20;1.00
53653;DHT22;39553;52.954;5.932;2023-07-13T13:41:10;22.20;1.00
53653;DHT22;39553;52.954;5.932;2023-07-13T13:43:36;22.10;1.00
53653;DHT22;39553;52.954;5.932;2023-07-13T13:46:19;22.00;1.00
53653;DHT22;39553;52.954;5.932;2023-07-13T13:48:45;22.10;1.00
53653;DHT22;39553;52.954;5.932;2023-07-13T13:51:15;22.20;1.00
53653;DHT22;39553;52.954;5.932;2023-07-13T13:53:41;22.20;1.00
53653;DHT22;39553;52.954;5.932;2023-07-13T13:56:08;22.20;1.00
53653;DHT22;39553;52.954;5.932;2023-07-13T13:58:34;22.20;1.00
53653;DHT22;39553;52.954;5.932;2023-07-13T14:01:00;22.10;1.00
53653;DHT22;39553;52.954;5.932;2023-07-13T14:03:26;22.10;1.00
53653;DHT22;39553;52.954;5.932;2023-07-13T14:05:53;22.00;1.00
53653;DHT22;39553;52.954;5.932;2023-07-13T14:08:20;21.90;1.00
53653;DHT22;39553;52.954;5.932;2023-07-13T14:10:49;21.90;1.00
53653;DHT22;39553;52.954;5.932;2023-07-13T14:13:27;21.90;1.00
53653;DHT22;39553;52.954;5.932;2023-07-13T14:15:54;21.90;1.00
53653;DHT22;39553;52.954;5.932;2023-07-13T14:18:20;21.80;1.00
53653;DHT22;39553;52.954;5.932;2023-07-13T14:20:48;21.80;1.00
53653;DHT22;39553;52.954;5.932;2023-07-13T14:23:17;21.80;1.00
53653;DHT22;39553;52.954;5.932;2023-07-13T14:25:44;21.80;1.00
53653;DHT22;39553;52.954;5.932;2023-07-13T14:28:23;21.90;1.00
53653;DHT22;39553;52.954;5.932;2023-07-13T14:30:50;21.90;1.00
53653;DHT22;39553;52.954;5.932;2023-07-13T14:33:16;21.90;1.00
53653;DHT22;39553;52.954;5.932;2023-07-13T14:35:42;21.80;1.00
53653;DHT22;39553;52.954;5.932;2023-07-13T14:38:19;21.70;1.00
53653;DHT22;39553;52.954;5.932;2023-07-13T14:40:46;21.70;1.00
53653;DHT22;39553;52.954;5.932;2023-07-13T14:43:14;21.80;1.00
53653;DHT22;39553;52.954;5.932;2023-07-13T14:45:46;21.90;1.00
53653;DHT22;39553;52.954;5.932;2023-07-13T14:48:23;21.90;1.00
53653;DHT22;39553;52.954;5.932;2023-07-13T14:50:57;22.00;1.00
53653;DHT22;39553;52.954;5.932;2023-07-13T14:53:26;21.90;1.00
53653;DHT22;39553;52.954;5.932;2023-07-13T14:55:55;21.80;1.00
53653;DHT22;39553;52.954;5.932;2023-07-13T14:58:21;21.90;1.00
53653;DHT22;39553;52.954;5.932;2023-07-13T15:00:47;22.00;1.00
53653;DHT22;39553;52.954;5.932;2023-07-13T15:03:23;22.00;1.00
53653;DHT22;39553;52.954;5.932;2023-07-13T15:05:50;21.90;1.00
53653;DHT22;39553;52.954;5.932;2023-07-13T15:08:16;21.90;1.00
53653;DHT22;39553;52.954;5.932;2023-07-13T15:10:42;21.90;1.00
53653;DHT22;39553;52.954;5.932;2023-07-13T15:13:19;21.90;1.00
53653;DHT22;39553;52.954;5.932;2023-07-13T15:15:47;22.00;1.00
53653;DHT22;39553;52.954;5.932;2023-07-13T15:18:16;22.10;1.00
53653;DHT22;39553;52.954;5.932;2023-07-13T15:20:43;22.30;1.00
53653;DHT22;39553;52.954;5.932;2023-07-13T15:23:11;22.20;1.00
53653;DHT22;39553;52.954;5.932;2023-07-13T15:25:37;22.00;1.00
53653;DHT22;39553;52.954;5.932;2023-07-13T15:28:03;22.00;1.00
53653;DHT22;39553;52.954;5.932;2023-07-13T15:30:41;21.90;1.00
53653;DHT22;39553;52.954;5.932;2023-07-13T15:33:24;21.80;1.00
53653;DHT22;39553;52.954;5.932;2023-07-13T15:35:51;21.70;1.00
53653;DHT22;39553;52.954;5.932;2023-07-13T15:38:31;21.60;1.00
53653;DHT22;39553;52.954;5.932;2023-07-13T15:40:58;21.60;1.00
53653;DHT22;39553;52.954;5.932;2023-07-13T15:43:26;21.60;1.00
53653;DHT22;39553;52.954;5.932;2023-07-13T15:45:52;21.50;1.00
53653;DHT22;39553;52.954;5.932;2023-07-13T15:48:20;21.50;1.00
53653;DHT22;39553;52.954;5.932;2023-07-13T15:50:54;21.60;1.00
53653;DHT22;39553;52.954;5.932;2023-07-13T15:53:24;21.60;1.00
53653;DHT22;39553;52.954;5.932;2023-07-13T15:55:50;21.60;1.00
53653;DHT22;39553;52.954;5.932;2023-07-13T15:58:18;21.70;1.00
53653;DHT22;39553;52.954;5.932;2023-07-13T16:00:44;21.60;1.00
53653;DHT22;39553;52.954;5.932;2023-07-13T16:03:11;21.60;1.00
53653;DHT22;39553;52.954;5.932;2023-07-13T16:05:36;21.60;1.00
53653;DHT22;39553;52.954;5.932;2023-07-13T16:08:05;21.50;1.00
53653;DHT22;39553;52.954;5.932;2023-07-13T16:10:34;21.50;1.00
53653;DHT22;39553;52.954;5.932;2023-07-13T16:13:03;21.50;1.00
53653;DHT22;39553;52.954;5.932;2023-07-13T16:15:30;21.60;1.00
53653;DHT22;39553;52.954;5.932;2023-07-13T16:17:57;21.50;1.00
53653;DHT22;39553;52.954;5.932;2023-07-13T16:20:23;21.60;1.00
53653;DHT22;39553;52.954;5.932;2023-07-13T16:22:52;21.70;1.00
53653;DHT22;39553;52.954;5.932;2023-07-13T16:25:21;21.80;1.00
53653;DHT22;39553;52.954;5.932;2023-07-13T16:27:50;21.80;1.00
53653;DHT22;39553;52.954;5.932;2023-07-13T16:30:22;21.80;1.00
53653;DHT22;39553;52.954;5.932;2023-07-13T16:32:52;21.70;1.00